Terminal Aerodrome Forecast
Issued by NWS

Home | Current Version | Previous Version | Text Only | Print | Product List | Glossary On
Versions: 1 2 3 4 5 6 7 8 9 10 11 12 13 14 15 16 17 18 19 20 21 22 23 24 25 26 27 28 29 30 31 32 33 34 35 36 37 38 39 40 41 42
000
FTUS46 KEKA 032341
TAFCEC
TAF
KCEC 032341Z 0400/0424 20008KT 6SM BR OVC009
      TEMPO 0400/0404 SCT009
     FM040400 19009KT 6SM BR OVC008
     FM040800 13003KT 4SM BR OVC006
     FM041100 VRB04KT 2SM BR OVC006
     FM041600 27006KT P6SM OVC008
     FM042200 34007KT P6SM OVC010=

USA.gov is the U.S. government's official web portal to all federal, state and local government web resources and services.